Terminal Aerodrome Forecast
Issued by NWS Jacksonville, FL

Home | Current Version | Previous Version | Text Only | Print | Product List | Glossary On
Versions: 1 2 3 4 5 6 7 8 9 10 11 12 13 14 15 16 17 18
000
FTUS42 KJAX 021720
TAFJAX
TAF
KJAX 021720Z 0218/0318 15006KT P6SM SCT030 BKN250
     FM022200 16010KT P6SM VCTS SCT050CB SCT150 BKN250
     FM030100 18007KT P6SM SCT040 BKN100
     FM031500 26010KT P6SM SCT025 BKN050=

USA.gov is the U.S. government's official web portal to all federal, state and local government web resources and services.